createdAt,value
2019-01-25T00:02:49.639Z,80.80
2019-01-25T00:06:54.750Z,80.80
2019-01-25T00:11:00.009Z,80.70
2019-01-25T00:15:07.840Z,81.00
2019-01-25T00:19:12.908Z,81.10
2019-01-25T00:23:18.030Z,80.80
2019-01-25T00:27:23.112Z,80.90
2019-01-25T00:31:28.213Z,80.70
2019-01-25T00:35:33.292Z,80.80
2019-01-25T00:39:38.405Z,80.90
2019-01-25T00:43:43.522Z,80.70
2019-01-25T00:47:48.589Z,80.90
2019-01-25T00:51:53.722Z,80.50
2019-01-25T00:55:58.808Z,80.30
2019-01-25T01:00:06.335Z,80.60
2019-01-25T01:04:12.373Z,80.60
2019-01-25T01:08:17.481Z,80.60
2019-01-25T01:12:22.555Z,80.90
2019-01-25T01:16:27.667Z,81.00
2019-01-25T01:20:32.777Z,80.90
2019-01-25T01:24:37.900Z,81.30
2019-01-25T01:28:42.953Z,81.30
2019-01-25T01:32:48.029Z,81.40
2019-01-25T01:36:53.167Z,81.50
2019-01-25T01:40:58.246Z,81.30
2019-01-25T01:45:03.351Z,81.50
2019-01-25T01:49:08.744Z,81.20
2019-01-25T01:53:13.859Z,81.50
2019-01-25T01:57:18.944Z,81.40
2019-01-25T02:01:24.052Z,81.30
2019-01-25T02:05:29.129Z,81.10
2019-01-25T02:09:34.244Z,81.10
2019-01-25T02:13:39.329Z,81.40
2019-01-25T02:17:44.432Z,81.50
2019-01-25T02:21:50.547Z,81.20
2019-01-25T02:25:55.631Z,82.10
2019-01-25T02:30:00.780Z,81.20
2019-01-25T02:34:07.178Z,81.60
2019-01-25T02:38:12.287Z,81.70
2019-01-25T02:42:17.405Z,81.60
2019-01-25T02:46:22.516Z,81.90
2019-01-25T02:50:27.617Z,82.20
2019-01-25T02:54:32.709Z,82.20
2019-01-25T02:58:37.823Z,82.00
2019-01-25T03:02:42.900Z,82.40
2019-01-25T03:06:48.051Z,82.70
2019-01-25T03:10:53.125Z,82.80
2019-01-25T03:14:58.235Z,82.70
2019-01-25T03:19:03.329Z,82.80
2019-01-25T03:23:08.430Z,83.00
2019-01-25T03:27:13.559Z,83.30
2019-01-25T03:31:18.642Z,83.70
2019-01-25T03:35:24.740Z,84.10
2019-01-25T03:39:29.847Z,84.20
2019-01-25T03:43:34.932Z,84.60
2019-01-25T03:47:40.047Z,84.40
2019-01-25T03:51:45.130Z,84.60
2019-01-25T03:55:50.236Z,84.70
2019-01-25T03:59:55.323Z,85.60
2019-01-25T04:04:00.432Z,84.60
2019-01-25T04:08:05.583Z,84.70
2019-01-25T04:12:10.710Z,84.70
2019-01-25T04:16:15.788Z,84.60
2019-01-25T04:20:22.507Z,84.60
2019-01-25T04:24:27.605Z,85.00
2019-01-25T04:28:32.821Z,85.00
2019-01-25T04:32:37.911Z,85.10
2019-01-25T04:36:43.008Z,84.70
2019-01-25T04:40:48.126Z,84.80
2019-01-25T04:44:53.208Z,84.60
2019-01-25T04:48:58.325Z,84.60
2019-01-25T04:53:03.473Z,84.50
2019-01-25T04:57:08.519Z,84.50
2019-01-25T05:01:13.628Z,84.60
2019-01-25T05:05:18.712Z,84.70
2019-01-25T05:09:23.814Z,85.10
2019-01-25T05:13:28.894Z,84.90
2019-01-25T05:17:33.996Z,85.30
2019-01-25T05:21:39.075Z,84.90
2019-01-25T05:25:44.184Z,85.00
2019-01-25T05:29:51.925Z,85.00
2019-01-25T05:33:57.045Z,85.40
2019-01-25T05:38:02.130Z,85.00
2019-01-25T05:42:07.228Z,84.90
2019-01-25T05:46:12.359Z,85.30
2019-01-25T05:50:18.032Z,85.20
2019-01-25T05:54:23.127Z,85.50
2019-01-25T05:58:28.223Z,86.30
2019-01-25T06:02:33.325Z,85.80
2019-01-25T06:06:38.415Z,87.00
2019-01-25T06:10:43.544Z,87.20
2019-01-25T06:14:48.619Z,86.30
2019-01-25T06:18:53.724Z,86.40
2019-01-25T06:22:58.835Z,86.20
2019-01-25T06:27:03.911Z,86.40
2019-01-25T06:31:09.030Z,86.40
2019-01-25T06:35:14.111Z,86.20
2019-01-25T06:39:19.231Z,86.00
2019-01-25T06:43:24.351Z,86.00
2019-01-25T06:47:29.418Z,86.20
2019-01-25T06:51:34.582Z,86.20
2019-01-25T06:55:39.696Z,86.10
2019-01-25T06:59:44.773Z,86.10
2019-01-25T07:03:49.899Z,86.20
2019-01-25T07:07:55.032Z,86.30
2019-01-25T07:12:00.115Z,89.10
2019-01-25T07:16:05.245Z,88.50
2019-01-25T07:20:13.012Z,88.50
2019-01-25T07:24:18.118Z,86.50
2019-01-25T07:28:23.209Z,84.90
2019-01-25T07:32:28.320Z,83.90
2019-01-25T07:36:33.428Z,84.10
2019-01-25T07:40:38.500Z,83.90
2019-01-25T07:44:43.633Z,83.60
2019-01-25T07:48:48.690Z,83.80
2019-01-25T07:52:53.790Z,84.00
2019-01-25T07:56:58.911Z,84.20
2019-01-25T08:01:04.022Z,84.80
2019-01-25T08:05:10.625Z,85.30
2019-01-25T08:09:16.806Z,85.00
2019-01-25T08:13:21.873Z,85.20
2019-01-25T08:17:26.984Z,85.40
2019-01-25T08:21:32.147Z,85.20
2019-01-25T08:25:37.236Z,85.50
2019-01-25T08:29:42.299Z,86.00
2019-01-25T08:33:47.386Z,86.20
2019-01-25T08:37:52.543Z,86.20
2019-01-25T08:41:57.672Z,86.40
2019-01-25T08:46:02.767Z,86.40
2019-01-25T08:50:13.907Z,86.60
2019-01-25T08:54:19.029Z,86.10
2019-01-25T08:58:24.177Z,86.20
2019-01-25T09:02:29.302Z,87.10
2019-01-25T09:06:34.397Z,86.70
2019-01-25T09:10:39.498Z,86.30
2019-01-25T09:14:44.577Z,86.00
2019-01-25T09:18:49.690Z,86.00
2019-01-25T09:22:54.820Z,86.10
2019-01-25T09:26:59.898Z,86.40
2019-01-25T09:31:05.020Z,86.30
2019-01-25T09:35:10.294Z,86.20
2019-01-25T09:39:15.422Z,86.30
2019-01-25T09:43:20.500Z,85.50
2019-01-25T09:47:25.600Z,85.40
2019-01-25T09:51:30.721Z,85.20
2019-01-25T09:55:35.809Z,85.20
2019-01-25T09:59:42.362Z,84.80
2019-01-25T10:03:47.520Z,85.10
2019-01-25T10:07:52.631Z,85.50
2019-01-25T10:11:57.724Z,85.00
2019-01-25T10:16:02.836Z,85.10
2019-01-25T10:20:10.042Z,84.60
2019-01-25T10:24:15.116Z,84.10
2019-01-25T10:28:20.215Z,83.00
2019-01-25T10:32:25.302Z,83.50
2019-01-25T10:36:30.404Z,83.00
2019-01-25T10:40:35.487Z,82.60
2019-01-25T10:44:40.597Z,82.60
2019-01-25T10:48:45.673Z,82.90
2019-01-25T10:52:50.794Z,83.00
2019-01-25T10:56:55.873Z,80.90
2019-01-25T11:01:01.036Z,80.00
2019-01-25T11:05:09.084Z,78.90
2019-01-25T11:09:14.156Z,78.10
2019-01-25T11:13:19.278Z,76.40
2019-01-25T11:17:24.356Z,69.80
2019-01-25T11:21:29.458Z,65.50
2019-01-25T11:25:40.109Z,63.40
2019-01-25T11:29:45.179Z,64.50
2019-01-25T11:33:50.303Z,67.00
2019-01-25T11:37:55.397Z,68.70
2019-01-25T11:42:00.542Z,68.80
2019-01-25T11:46:05.621Z,71.10
2019-01-25T11:50:21.082Z,72.50
2019-01-25T11:54:26.202Z,73.80
2019-01-25T11:58:31.405Z,74.30
2019-01-25T12:02:36.513Z,74.30
2019-01-25T12:06:41.636Z,74.40
2019-01-25T12:10:46.752Z,74.60
2019-01-25T12:14:51.849Z,74.10
2019-01-25T12:18:57.046Z,74.10
2019-01-25T12:23:02.110Z,73.30
2019-01-25T12:27:07.322Z,71.90
2019-01-25T12:31:12.448Z,71.40
2019-01-25T12:35:17.521Z,71.60
2019-01-25T12:39:22.625Z,71.60
2019-01-25T12:43:28.007Z,70.80
2019-01-25T12:47:33.052Z,71.30
2019-01-25T12:51:38.161Z,71.50
2019-01-25T12:55:43.247Z,71.70
2019-01-25T12:59:48.388Z,72.30
2019-01-25T13:03:53.490Z,72.00
2019-01-25T13:07:58.591Z,71.90
2019-01-25T13:12:03.772Z,72.00
2019-01-25T13:16:08.966Z,71.70
2019-01-25T13:20:20.356Z,71.10
2019-01-25T13:24:25.698Z,70.90
2019-01-25T13:28:30.803Z,70.90
2019-01-25T13:32:35.876Z,69.40
2019-01-25T13:36:41.553Z,66.50
2019-01-25T13:40:47.007Z,60.60
2019-01-25T13:44:52.254Z,58.90
2019-01-25T13:48:57.604Z,58.80
2019-01-25T13:53:02.955Z,59.50
2019-01-25T13:57:09.455Z,58.90
2019-01-25T14:01:14.591Z,57.80
2019-01-25T14:05:19.744Z,58.00
2019-01-25T14:09:24.862Z,59.20
2019-01-25T14:13:34.111Z,61.20
2019-01-25T14:17:37.117Z,63.10
2019-01-25T14:21:42.253Z,64.30
2019-01-25T14:25:47.327Z,65.20
2019-01-25T14:29:52.749Z,64.00
2019-01-25T14:33:59.023Z,64.90
2019-01-25T14:38:04.575Z,66.00
2019-01-25T14:42:10.129Z,66.50
2019-01-25T14:46:15.587Z,67.00
2019-01-25T14:50:24.010Z,68.70
2019-01-25T14:54:29.604Z,68.60
2019-01-25T14:58:35.014Z,68.80
2019-01-25T15:02:40.485Z,69.20
2019-01-25T15:06:46.022Z,69.70
2019-01-25T15:10:52.220Z,69.90
2019-01-25T15:14:57.642Z,71.10
2019-01-25T15:19:03.136Z,71.50
2019-01-25T15:23:10.488Z,71.80
2019-01-25T15:27:15.640Z,72.30
2019-01-25T15:31:21.197Z,72.80
2019-01-25T15:35:26.750Z,73.00
2019-01-25T15:39:32.207Z,75.20
2019-01-25T15:43:37.554Z,75.50
2019-01-25T15:47:43.110Z,76.30
2019-01-25T15:51:49.687Z,76.30
2019-01-25T15:55:55.159Z,76.70
2019-01-25T16:00:00.695Z,77.30
2019-01-25T16:04:06.148Z,77.20
2019-01-25T16:08:13.444Z,77.40
2019-01-25T16:12:18.998Z,78.00
2019-01-25T16:16:24.451Z,77.80
2019-01-25T16:20:31.134Z,78.70
2019-01-25T16:24:36.585Z,78.90
2019-01-25T16:28:42.139Z,79.10
2019-01-25T16:32:47.491Z,79.40
2019-01-25T16:36:52.947Z,79.40
2019-01-25T16:40:58.400Z,79.00
2019-01-25T16:45:04.697Z,79.40
2019-01-25T16:49:10.431Z,79.40
2019-01-25T16:53:17.113Z,79.60
2019-01-25T16:57:22.670Z,79.40
2019-01-25T17:01:31.155Z,79.40
2019-01-25T17:05:38.453Z,79.70
2019-01-25T17:09:44.451Z,80.10
2019-01-25T17:13:49.903Z,80.50
2019-01-25T17:17:55.271Z,80.50
2019-01-25T17:22:02.903Z,80.60
2019-01-25T17:26:08.411Z,80.90
2019-01-25T17:30:25.644Z,80.80
2019-01-25T17:34:31.094Z,80.50
2019-01-25T17:38:36.651Z,80.90
2019-01-25T17:42:42.138Z,81.70
2019-01-25T17:46:48.783Z,80.90
2019-01-25T17:50:54.341Z,80.70
2019-01-25T17:55:01.491Z,80.50
2019-01-25T17:59:08.628Z,82.80
2019-01-25T18:03:14.179Z,81.30
2019-01-25T18:07:20.794Z,81.00
2019-01-25T18:11:30.302Z,81.20
2019-01-25T18:15:35.698Z,81.80
2019-01-25T18:19:41.418Z,82.10
2019-01-25T18:23:46.869Z,81.70
2019-01-25T18:27:56.008Z,81.90
2019-01-25T18:32:02.997Z,82.20
2019-01-25T18:36:09.988Z,82.40
2019-01-25T18:40:17.218Z,82.60
2019-01-25T18:44:23.146Z,83.00
2019-01-25T18:48:29.722Z,83.40
2019-01-25T18:52:35.321Z,84.00
2019-01-25T18:56:41.173Z,84.60
2019-01-25T19:00:46.696Z,85.10
2019-01-25T19:04:55.239Z,85.60
2019-01-25T19:09:00.775Z,85.80
2019-01-25T19:13:07.871Z,86.10
2019-01-25T19:17:13.354Z,86.60
2019-01-25T19:38:57.161Z,52.60
2019-01-25T19:43:02.477Z,52.80
2019-01-25T19:47:07.846Z,41.80
2019-01-25T19:51:13.008Z,53.70
2019-01-25T19:55:21.395Z,77.20
2019-01-25T19:59:26.468Z,84.10
2019-01-25T20:03:33.127Z,86.70
2019-01-25T20:07:38.631Z,87.80
2019-01-25T20:11:45.855Z,88.30
2019-01-25T20:15:51.499Z,88.40
2019-01-25T20:19:59.781Z,88.30
2019-01-25T20:24:05.439Z,88.20
2019-01-25T20:28:13.112Z,88.40
2019-01-25T20:32:18.803Z,88.60
2019-01-25T20:36:25.381Z,88.60
2019-01-25T20:40:31.139Z,89.00
2019-01-25T20:44:38.919Z,88.90
2019-01-25T20:48:45.015Z,89.30
2019-01-25T20:52:50.673Z,89.30
2019-01-25T20:56:57.996Z,89.30
2019-01-25T21:01:03.729Z,90.10
2019-01-25T21:05:09.439Z,89.60
2019-01-25T21:09:15.835Z,89.80
2019-01-25T21:13:21.554Z,89.90
2019-01-25T21:17:29.535Z,89.90
2019-01-25T21:21:36.418Z,89.80
2019-01-25T21:25:43.407Z,89.70
2019-01-25T21:29:50.997Z,89.90
2019-01-25T21:33:58.102Z,90.00
2019-01-25T21:38:03.657Z,89.80
2019-01-25T21:42:09.113Z,89.70
2019-01-25T21:46:14.702Z,89.60
2019-01-25T21:50:22.314Z,89.70
2019-01-25T21:54:27.827Z,89.80
2019-01-25T21:58:33.177Z,90.10
2019-01-25T22:02:38.635Z,90.00
2019-01-25T22:06:44.185Z,90.00
2019-01-25T22:10:49.643Z,89.90
2019-01-25T22:14:55.195Z,89.60
2019-01-25T22:19:00.753Z,89.40
2019-01-25T22:23:06.233Z,89.50
2019-01-25T22:27:13.086Z,89.20
2019-01-25T22:31:18.644Z,89.00
2019-01-25T22:35:24.200Z,88.80
2019-01-25T22:39:29.650Z,88.80
2019-01-25T22:43:34.999Z,88.20
2019-01-25T22:47:40.452Z,87.50
2019-01-25T22:51:46.006Z,87.80
2019-01-25T22:55:51.460Z,87.40
2019-01-25T22:59:56.912Z,87.10
2019-01-25T23:04:11.685Z,86.70
2019-01-25T23:08:17.035Z,86.20
2019-01-25T23:12:22.284Z,86.10
2019-01-25T23:16:27.631Z,85.40
2019-01-25T23:20:32.981Z,84.90
2019-01-25T23:24:38.545Z,84.30
2019-01-25T23:28:44.092Z,83.50
2019-01-25T23:32:49.340Z,82.90
2019-01-25T23:36:54.397Z,82.60
2019-01-25T23:40:59.577Z,82.80
2019-01-25T23:45:05.995Z,82.00
2019-01-25T23:49:11.065Z,81.60
2019-01-25T23:53:16.398Z,81.70
2019-01-25T23:57:21.464Z,81.30
